Time,TemperatureF,DewpointF,PressureIn,WindDirection,WindDirectionDegrees,WindSpeedMPH,WindSpeedGustMPH,Humidity,HourlyPrecipIn,Conditions,Clouds,dailyrainin,SolarRadiationWatts/m^2,SoftwareType,DateUTC
2013-02-15 00:00:00,33.0,27.8,30.01,NW,319,6.9,6.9,81,0.00,OVC,,0.00,0.0,WeatherDisplay:10.37,2013-02-15 06:00:00,
2013-02-15 00:05:00,32.9,27.7,30.01,NW,317,5.8,5.8,81,0.00,OVC,,0.00,0.0,WeatherDisplay:10.37,2013-02-15 06:05:00,
2013-02-15 00:10:00,34.3,27.2,30.01,WNW,296,3.5,3.5,75,0.00,OVC,,0.00,0.0,WeatherDisplay:10.37,2013-02-15 06:10:00,
2013-02-15 00:15:00,34.3,27.2,30.01,WNW,296,3.5,3.5,75,0.00,OVC,,0.00,0.0,WeatherDisplay:10.37,2013-02-15 06:15:00,
2013-02-15 00:20:00,34.3,27.2,30.01,WNW,296,3.5,3.5,75,0.00,OVC,,0.00,0.0,WeatherDisplay:10.37,2013-02-15 06:20:00,
2013-02-15 00:25:00,34.3,27.2,30.01,WNW,296,3.5,3.5,75,0.00,OVC,,0.00,0.0,WeatherDisplay:10.37,2013-02-15 06:25:00,
2013-02-15 00:30:00,34.3,27.2,30.01,WNW,296,3.5,3.5,75,0.00,OVC,,0.00,0.0,WeatherDisplay:10.37,2013-02-15 06:30:00,
2013-02-15 00:35:00,34.3,27.2,30.01,WNW,296,3.5,3.5,75,0.00,OVC,,0.00,0.0,WeatherDisplay:10.37,2013-02-15 06:35:00,
2013-02-15 00:40:00,34.3,27.2,30.01,WNW,296,3.5,3.5,75,0.00,OVC,,0.00,0.0,WeatherDisplay:10.37,2013-02-15 06:40:00,
2013-02-15 00:45:00,32.1,28.4,30.01,NW,304,3.5,3.5,86,0.00,OVC,,0.00,0.0,WeatherDisplay:10.37,2013-02-15 06:45:00,
2013-02-15 00:50:00,32.0,28.6,30.02,NW,313,4.6,4.6,87,0.00,OVC,,0.00,0.0,WeatherDisplay:10.37,2013-02-15 06:50:00,
2013-02-15 00:55:00,32.1,28.4,30.02,NW,309,3.5,3.5,86,0.00,OVC,,0.00,0.0,WeatherDisplay:10.37,2013-02-15 06:55:00,
2013-02-15 01:00:00,31.9,28.5,30.01,WNW,300,5.0,5.0,87,0.00,OVC,,0.00,0.0,WeatherDisplay:10.37,2013-02-15 07:00:00,
2013-02-15 01:05:00,32.1,28.4,30.02,NW,309,3.5,3.5,86,0.00,OVC,,0.00,0.0,WeatherDisplay:10.37,2013-02-15 07:05:00,
2013-02-15 01:10:00,32.1,28.4,30.02,NW,309,3.5,3.5,86,0.00,OVC,,0.00,0.0,WeatherDisplay:10.37,2013-02-15 07:10:00,
2013-02-15 01:15:00,32.0,28.8,30.01,WNW,296,3.5,3.5,88,0.00,OVC,,0.00,0.0,WeatherDisplay:10.37,2013-02-15 07:15:00,
2013-02-15 01:20:00,32.1,28.4,30.02,NW,309,3.5,3.5,86,0.00,OVC,,0.00,0.0,WeatherDisplay:10.37,2013-02-15 07:20:00,
2013-02-15 01:25:00,32.0,28.8,30.01,WNW,298,3.5,3.5,88,0.00,OVC,,0.00,0.0,WeatherDisplay:10.37,2013-02-15 07:25:00,
2013-02-15 01:30:00,31.9,28.8,30.02,WNW,298,3.0,3.0,88,0.00,OVC,,0.00,0.0,WeatherDisplay:10.37,2013-02-15 07:30:00,
2013-02-15 01:36:00,32.1,28.4,30.02,NW,309,3.5,3.5,86,0.00,OVC,,0.00,0.0,WeatherDisplay:10.37,2013-02-15 07:36:00,
2013-02-15 01:41:00,32.0,28.8,30.02,WNW,298,1.1,1.1,88,0.00,OVC,,0.00,0.0,WeatherDisplay:10.37,2013-02-15 07:41:00,
2013-02-15 01:46:00,32.1,28.4,30.02,NW,309,3.5,3.5,86,0.00,OVC,,0.00,0.0,WeatherDisplay:10.37,2013-02-15 07:46:00,
2013-02-15 01:51:00,32.1,28.4,30.02,NW,309,3.5,3.5,86,0.00,OVC,,0.00,0.0,WeatherDisplay:10.37,2013-02-15 07:51:00,
2013-02-15 01:56:00,32.1,28.4,30.02,NW,309,3.5,3.5,86,0.00,OVC,,0.00,0.0,WeatherDisplay:10.37,2013-02-15 07:56:00,
2013-02-15 02:01:00,32.1,28.4,30.02,NW,309,3.5,3.5,86,0.00,OVC,,0.00,0.0,WeatherDisplay:10.37,2013-02-15 08:01:00,
2013-02-15 02:06:00,32.1,28.4,30.02,NW,309,3.5,3.5,86,0.00,OVC,,0.00,0.0,WeatherDisplay:10.37,2013-02-15 08:06:00,
2013-02-15 02:11:00,32.5,27.9,30.02,WNW,294,3.5,3.5,83,0.00,OVC,,0.00,0.0,WeatherDisplay:10.37,2013-02-15 08:11:00,
2013-02-15 02:16:00,32.5,27.9,30.02,NW,318,8.1,8.1,83,0.00,OVC,,0.00,0.0,WeatherDisplay:10.37,2013-02-15 08:16:00,
2013-02-15 02:21:00,32.1,28.4,30.02,NW,309,3.5,3.5,86,0.00,OVC,,0.00,0.0,WeatherDisplay:10.37,2013-02-15 08:21:00,
2013-02-15 02:26:00,32.6,28.0,30.03,NW,312,11.5,11.5,83,0.00,OVC,,0.00,0.0,WeatherDisplay:10.37,2013-02-15 08:26:00,
2013-02-15 02:31:00,32.6,28.0,30.03,West,267,9.2,9.2,83,0.00,OVC,,0.00,0.0,WeatherDisplay:10.37,2013-02-15 08:31:00,
2013-02-15 02:36:00,32.1,28.4,30.02,NW,309,3.5,3.5,86,0.00,OVC,,0.00,0.0,WeatherDisplay:10.37,2013-02-15 08:36:00,
2013-02-15 02:41:00,32.1,28.4,30.02,NW,309,3.5,3.5,86,0.00,OVC,,0.00,0.0,WeatherDisplay:10.37,2013-02-15 08:41:00,
2013-02-15 02:46:00,32.5,27.9,30.03,West,281,11.5,11.5,83,0.00,OVC,,0.00,0.0,WeatherDisplay:10.37,2013-02-15 08:46:00,
2013-02-15 02:51:00,32.1,28.4,30.02,NW,309,3.5,3.5,86,0.00,OVC,,0.00,0.0,WeatherDisplay:10.37,2013-02-15 08:51:00,
2013-02-15 02:56:00,32.1,28.4,30.02,NW,309,3.5,3.5,86,0.00,OVC,,0.00,0.0,WeatherDisplay:10.37,2013-02-15 08:56:00,
2013-02-15 03:01:00,32.3,28.0,30.03,WNW,288,8.1,8.1,84,0.00,OVC,,0.00,0.0,WeatherDisplay:10.37,2013-02-15 09:01:00,
2013-02-15 03:06:00,32.3,28.3,30.03,West,281,9.0,9.0,85,0.00,OVC,,0.00,0.0,WeatherDisplay:10.37,2013-02-15 09:06:00,
2013-02-15 03:11:00,32.1,28.4,30.02,NW,309,3.5,3.5,86,0.00,OVC,,0.00,0.0,WeatherDisplay:10.37,2013-02-15 09:11:00,
2013-02-15 03:16:00,32.1,28.4,30.02,NW,309,3.5,3.5,86,0.00,OVC,,0.00,0.0,WeatherDisplay:10.37,2013-02-15 09:16:00,
2013-02-15 03:21:00,32.1,28.4,30.02,NW,309,3.5,3.5,86,0.00,OVC,,0.00,0.0,WeatherDisplay:10.37,2013-02-15 09:21:00,
2013-02-15 03:26:00,32.1,28.4,30.02,NW,309,3.5,3.5,86,0.00,OVC,,0.00,0.0,WeatherDisplay:10.37,2013-02-15 09:26:00,
2013-02-15 03:31:00,32.0,28.6,30.03,WNW,286,7.0,7.0,87,0.00,OVC,,0.00,0.0,WeatherDisplay:10.37,2013-02-15 09:31:00,
2013-02-15 03:36:00,32.1,28.4,30.02,NW,309,3.5,3.5,86,0.00,OVC,,0.00,0.0,WeatherDisplay:10.37,2013-02-15 09:36:00,
2013-02-15 03:41:00,32.1,28.4,30.02,NW,309,3.5,3.5,86,0.00,OVC,,0.00,0.0,WeatherDisplay:10.37,2013-02-15 09:41:00,
2013-02-15 03:46:00,32.1,28.4,30.02,NW,309,3.5,3.5,86,0.00,OVC,,0.00,0.0,WeatherDisplay:10.37,2013-02-15 09:46:00,
2013-02-15 03:51:00,32.1,28.4,30.02,NW,309,3.5,3.5,86,0.00,OVC,,0.00,0.0,WeatherDisplay:10.37,2013-02-15 09:51:00,
2013-02-15 03:56:00,31.6,28.7,30.04,NW,313,6.9,6.9,89,0.00,OVC,,0.00,0.0,WeatherDisplay:10.37,2013-02-15 09:56:00,
2013-02-15 04:01:00,31.5,28.6,30.04,WNW,300,5.8,5.8,89,0.00,-RA,,0.00,0.0,WeatherDisplay:10.37,2013-02-15 10:01:00,
2013-02-15 04:06:00,32.1,28.4,30.02,NW,309,3.5,3.5,86,0.00,-RA,,0.00,0.0,WeatherDisplay:10.37,2013-02-15 10:06:00,
2013-02-15 04:11:00,31.5,28.6,30.04,WNW,294,6.9,6.9,89,0.00,-RA,,0.00,0.0,WeatherDisplay:10.37,2013-02-15 10:11:00,
2013-02-15 04:16:00,31.6,28.7,30.04,NW,306,5.8,5.8,89,0.00,-SN,,0.00,0.0,WeatherDisplay:10.37,2013-02-15 10:16:00,
2013-02-15 04:21:00,31.6,28.7,30.05,NW,311,3.5,3.5,89,0.00,-SN,,0.00,0.0,WeatherDisplay:10.37,2013-02-15 10:21:00,
2013-02-15 04:26:00,32.1,28.4,30.02,NW,309,3.5,3.5,86,0.00,-SN,,0.00,0.0,WeatherDisplay:10.37,2013-02-15 10:26:00,
2013-02-15 04:31:00,32.1,28.4,30.02,NW,309,3.5,3.5,86,0.00,-SN,,0.00,0.0,WeatherDisplay:10.37,2013-02-15 10:31:00,
2013-02-15 04:36:00,31.7,28.8,30.05,WNW,302,6.9,6.9,89,0.00,-SN,,0.00,0.0,WeatherDisplay:10.37,2013-02-15 10:36:00,
2013-02-15 04:41:00,31.7,28.6,30.06,WNW,285,8.1,8.1,88,0.00,-SN,,0.00,0.0,WeatherDisplay:10.37,2013-02-15 10:41:00,
2013-02-15 04:46:00,32.1,28.4,30.02,NW,309,3.5,3.5,86,0.00,OVC,,0.00,0.0,WeatherDisplay:10.37,2013-02-15 10:46:00,
2013-02-15 04:51:00,31.6,28.5,30.06,WNW,298,6.9,6.9,88,0.00,OVC,,0.00,0.0,WeatherDisplay:10.37,2013-02-15 10:51:00,
2013-02-15 04:56:00,32.1,28.4,30.02,NW,309,3.5,3.5,86,0.00,OVC,,0.00,0.0,WeatherDisplay:10.37,2013-02-15 10:56:00,
2013-02-15 05:01:00,32.1,28.4,30.02,NW,309,3.5,3.5,86,0.00,OVC,,0.00,0.0,WeatherDisplay:10.37,2013-02-15 11:01:00,
2013-02-15 05:06:00,32.1,28.4,30.02,NW,309,3.5,3.5,86,0.00,OVC,,0.00,0.0,WeatherDisplay:10.37,2013-02-15 11:06:00,
2013-02-15 05:11:00,31.4,28.0,30.06,NW,313,9.2,9.2,87,0.00,OVC,,0.00,0.0,WeatherDisplay:10.37,2013-02-15 11:11:00,
2013-02-15 05:16:00,31.3,27.9,30.06,NW,316,8.1,8.1,87,0.00,OVC,,0.00,0.0,WeatherDisplay:10.37,2013-02-15 11:16:00,
2013-02-15 05:21:00,32.1,28.4,30.02,NW,309,3.5,3.5,86,0.00,OVC,,0.00,0.0,WeatherDisplay:10.37,2013-02-15 11:21:00,
2013-02-15 05:26:00,31.2,27.8,30.07,WNW,301,8.1,8.1,87,0.00,OVC,,0.00,0.0,WeatherDisplay:10.37,2013-02-15 11:26:00,
2013-02-15 05:31:00,31.1,27.7,30.07,NW,310,9.2,9.2,87,0.00,OVC,,0.00,0.0,WeatherDisplay:10.37,2013-02-15 11:31:00,
2013-02-15 05:36:00,32.1,28.4,30.02,NW,309,3.5,3.5,86,0.00,-SN,,0.00,0.0,WeatherDisplay:10.37,2013-02-15 11:36:00,
2013-02-15 05:41:00,32.1,28.4,30.02,NW,309,3.5,3.5,86,0.00,-SN,,0.00,0.0,WeatherDisplay:10.37,2013-02-15 11:41:00,
2013-02-15 05:46:00,32.1,28.4,30.02,NW,309,3.5,3.5,86,0.00,-SN,,0.00,0.0,WeatherDisplay:10.37,2013-02-15 11:46:00,
2013-02-15 05:51:00,32.1,28.4,30.02,NW,309,3.5,3.5,86,0.00,-SN,,0.00,0.0,WeatherDisplay:10.37,2013-02-15 11:51:00,
2013-02-15 05:56:00,30.7,27.8,30.07,NW,310,11.5,11.5,89,0.00,-SN,,0.00,0.0,WeatherDisplay:10.37,2013-02-15 11:56:00,
2013-02-15 06:01:00,32.1,28.4,30.02,NW,309,3.5,3.5,86,0.00,-SN,,0.00,0.0,WeatherDisplay:10.37,2013-02-15 12:01:00,
2013-02-15 06:06:00,32.1,28.4,30.02,NW,309,3.5,3.5,86,0.00,-SN,,0.00,0.0,WeatherDisplay:10.37,2013-02-15 12:06:00,
2013-02-15 06:11:00,32.1,28.4,30.02,NW,309,3.5,3.5,86,0.00,-SN,,0.00,0.0,WeatherDisplay:10.37,2013-02-15 12:11:00,
2013-02-15 06:16:00,32.1,28.4,30.02,NW,309,3.5,3.5,86,0.00,-SN,,0.00,0.0,WeatherDisplay:10.37,2013-02-15 12:16:00,
2013-02-15 06:21:00,29.9,26.5,30.08,NW,321,11.5,11.5,87,0.00,-SN,,0.00,0.0,WeatherDisplay:10.37,2013-02-15 12:21:00,
2013-02-15 06:26:00,32.1,28.4,30.02,NW,309,3.5,3.5,86,0.00,-SN,,0.00,0.0,WeatherDisplay:10.37,2013-02-15 12:26:00,
2013-02-15 06:31:00,32.1,28.4,30.02,NW,309,3.5,3.5,86,0.00,-SN,,0.00,0.0,WeatherDisplay:10.37,2013-02-15 12:31:00,
2013-02-15 06:36:00,29.4,26.0,30.09,NW,324,11.0,11.0,87,0.00,-SN,,0.00,0.0,WeatherDisplay:10.37,2013-02-15 12:36:00,
2013-02-15 06:41:00,29.4,26.0,30.09,NW,317,9.2,9.2,87,0.00,-SN,,0.00,0.0,WeatherDisplay:10.37,2013-02-15 12:41:00,
2013-02-15 06:46:00,29.3,25.6,30.10,NNW,336,12.7,12.7,86,0.00,-SN,,0.00,0.0,WeatherDisplay:10.37,2013-02-15 12:46:00,
2013-02-15 06:51:00,29.2,25.5,30.10,NW,323,11.5,11.5,86,0.00,-SN,,0.00,0.0,WeatherDisplay:10.37,2013-02-15 12:51:00,
2013-02-15 06:56:00,29.0,24.8,30.10,NW,323,11.5,11.5,84,0.00,-SN,,0.00,5.0,WeatherDisplay:10.37,2013-02-15 12:56:00,
2013-02-15 07:01:00,28.9,24.7,30.11,NW,317,14.0,14.0,84,0.00,-SN,,0.00,9.0,WeatherDisplay:10.37,2013-02-15 13:01:00,
2013-02-15 07:06:00,29.4,26.0,30.09,NW,317,9.2,9.2,87,0.00,-SN,,0.00,0.0,WeatherDisplay:10.37,2013-02-15 13:06:00,
2013-02-15 07:11:00,28.5,24.8,30.11,NNW,331,17.3,17.3,86,0.00,-SN,,0.00,19.0,WeatherDisplay:10.37,2013-02-15 13:11:00,
2013-02-15 07:16:00,29.4,26.0,30.09,NW,317,9.2,9.2,87,0.00,OVC,,0.00,0.0,WeatherDisplay:10.37,2013-02-15 13:16:00,
2013-02-15 07:22:00,28.5,24.8,30.12,NW,326,11.5,11.5,86,0.00,OVC,,0.00,32.0,WeatherDisplay:10.37,2013-02-15 13:22:00,
2013-02-15 07:27:00,29.4,26.0,30.09,NW,317,9.2,9.2,87,0.00,OVC,,0.00,0.0,WeatherDisplay:10.37,2013-02-15 13:27:00,
2013-02-15 07:32:00,28.3,24.1,30.12,NNW,329,15.0,15.0,84,0.00,OVC,,0.00,32.0,WeatherDisplay:10.37,2013-02-15 13:32:00,
2013-02-15 07:37:00,29.4,26.0,30.09,NW,317,9.2,9.2,87,0.00,OVC,,0.00,0.0,WeatherDisplay:10.37,2013-02-15 13:37:00,
2013-02-15 07:42:00,29.4,26.0,30.09,NW,317,9.2,9.2,87,0.00,OVC,,0.00,0.0,WeatherDisplay:10.37,2013-02-15 13:42:00,
2013-02-15 07:47:00,28.3,24.1,30.13,NNW,331,11.5,11.5,84,0.00,OVC,,0.00,40.0,WeatherDisplay:10.37,2013-02-15 13:47:00,
2013-02-15 07:52:00,28.3,24.1,30.13,NNW,331,11.5,11.5,84,0.00,OVC,,0.00,40.0,WeatherDisplay:10.37,2013-02-15 13:52:00,
2013-02-15 07:57:00,28.1,23.6,30.14,NNW,328,13.8,13.8,83,0.00,OVC,,0.00,84.0,WeatherDisplay:10.37,2013-02-15 13:57:00,
2013-02-15 08:02:00,28.1,23.6,30.14,NW,323,14.0,14.0,83,0.00,OVC,,0.00,97.0,WeatherDisplay:10.37,2013-02-15 14:02:00,
2013-02-15 08:07:00,28.1,23.6,30.14,NNW,330,11.5,11.5,83,0.00,OVC,,0.00,90.0,WeatherDisplay:10.37,2013-02-15 14:07:00,
2013-02-15 08:12:00,28.1,23.6,30.14,NNW,342,11.5,11.5,83,0.00,OVC,,0.00,95.0,WeatherDisplay:10.37,2013-02-15 14:12:00,
2013-02-15 08:17:00,27.8,23.0,30.15,NNW,330,15.0,15.0,82,0.00,OVC,,0.00,107.0,WeatherDisplay:10.37,2013-02-15 14:17:00,
2013-02-15 08:22:00,27.9,23.4,30.15,NNW,334,13.8,13.8,83,0.00,OVC,,0.00,118.0,WeatherDisplay:10.37,2013-02-15 14:22:00,
2013-02-15 08:27:00,28.1,23.6,30.14,NNW,342,11.5,11.5,83,0.00,OVC,,0.00,95.0,WeatherDisplay:10.37,2013-02-15 14:27:00,
2013-02-15 08:32:00,28.0,22.9,30.16,NNW,332,13.8,13.8,81,0.00,OVC,,0.00,125.0,WeatherDisplay:10.37,2013-02-15 14:32:00,
2013-02-15 08:37:00,28.1,23.6,30.14,NNW,342,11.5,11.5,83,0.00,OVC,,0.00,95.0,WeatherDisplay:10.37,2013-02-15 14:37:00,
2013-02-15 08:42:00,27.9,22.5,30.16,NW,312,12.7,12.7,80,0.00,OVC,,0.00,107.0,WeatherDisplay:10.37,2013-02-15 14:42:00,
2013-02-15 08:47:00,28.1,23.6,30.14,NNW,342,11.5,11.5,83,0.00,-SN,,0.00,95.0,WeatherDisplay:10.37,2013-02-15 14:47:00,
2013-02-15 08:52:00,28.2,22.8,30.16,NW,309,11.5,11.5,80,0.00,-SN,,0.00,91.0,WeatherDisplay:10.37,2013-02-15 14:52:00,
2013-02-15 08:57:00,28.2,22.8,30.16,NW,321,11.0,11.0,80,0.00,-SN,,0.00,100.0,WeatherDisplay:10.37,2013-02-15 14:57:00,
2013-02-15 09:02:00,28.1,23.6,30.14,NNW,342,11.5,11.5,83,0.00,-SN,,0.00,95.0,WeatherDisplay:10.37,2013-02-15 15:02:00,
2013-02-15 09:07:00,28.1,23.6,30.14,NNW,342,11.5,11.5,83,0.00,OVC,,0.00,95.0,WeatherDisplay:10.37,2013-02-15 15:07:00,
2013-02-15 09:12:00,28.1,23.6,30.14,NNW,342,11.5,11.5,83,0.00,OVC,,0.00,95.0,WeatherDisplay:10.37,2013-02-15 15:12:00,
2013-02-15 09:17:00,28.1,23.6,30.14,NNW,342,11.5,11.5,83,0.00,OVC,,0.00,95.0,WeatherDisplay:10.37,2013-02-15 15:17:00,
2013-02-15 09:22:00,28.1,23.6,30.14,NNW,342,11.5,11.5,83,0.00,OVC,,0.00,95.0,WeatherDisplay:10.37,2013-02-15 15:22:00,
2013-02-15 09:27:00,28.1,23.6,30.14,NNW,342,11.5,11.5,83,0.00,OVC,,0.00,95.0,WeatherDisplay:10.37,2013-02-15 15:27:00,
2013-02-15 09:32:00,28.1,23.6,30.14,NNW,342,11.5,11.5,83,0.00,OVC,,0.00,95.0,WeatherDisplay:10.37,2013-02-15 15:32:00,
2013-02-15 09:37:00,28.7,22.1,30.18,NNW,347,12.0,12.0,76,0.00,OVC,,0.00,304.0,WeatherDisplay:10.37,2013-02-15 15:37:00,
2013-02-15 09:42:00,28.8,21.6,30.18,NW,323,18.4,18.4,74,0.00,OVC,,0.00,278.0,WeatherDisplay:10.37,2013-02-15 15:42:00,
2013-02-15 09:47:00,28.1,23.6,30.14,NNW,342,11.5,11.5,83,0.00,OVC,,0.00,95.0,WeatherDisplay:10.37,2013-02-15 15:47:00,
2013-02-15 09:52:00,28.1,23.6,30.14,NNW,342,11.5,11.5,83,0.00,OVC,,0.00,95.0,WeatherDisplay:10.37,2013-02-15 15:52:00,
2013-02-15 09:57:00,28.1,21.2,30.18,NW,323,11.5,12.0,75,0.00,OVC,,0.00,204.0,WeatherDisplay:10.37,2013-02-15 15:57:00,
2013-02-15 10:02:00,28.4,22.4,30.18,NNW,342,16.0,16.0,78,0.00,OVC,,0.00,594.0,WeatherDisplay:10.37,2013-02-15 16:02:00,
2013-02-15 10:07:00,28.1,21.2,30.18,NNW,331,13.8,13.8,75,0.00,OVC,,0.00,204.0,WeatherDisplay:10.37,2013-02-15 16:07:00,
2013-02-15 10:12:00,28.1,21.2,30.18,NNW,331,13.8,13.8,75,0.00,OVC,,0.00,204.0,WeatherDisplay:10.37,2013-02-15 16:12:00,
2013-02-15 10:17:00,28.1,21.2,30.18,NNW,331,13.8,13.8,75,0.00,OVC,,0.00,204.0,WeatherDisplay:10.37,2013-02-15 16:17:00,
2013-02-15 10:22:00,28.1,21.2,30.18,NNW,331,13.8,13.8,75,0.00,OVC,,0.00,204.0,WeatherDisplay:10.37,2013-02-15 16:22:00,
2013-02-15 10:27:00,28.4,20.5,30.19,NNW,332,17.0,17.0,72,0.00,OVC,,0.00,341.0,WeatherDisplay:10.37,2013-02-15 16:27:00,
2013-02-15 10:32:00,28.6,21.4,30.19,NW,304,10.4,12.2,74,0.00,BKN,,0.00,227.0,WeatherDisplay:10.37,2013-02-15 16:32:00,
2013-02-15 10:37:00,28.6,21.4,30.19,NW,304,10.4,12.2,74,0.00,BKN,,0.00,227.0,WeatherDisplay:10.37,2013-02-15 16:37:00,
2013-02-15 10:42:00,28.7,20.1,30.19,WNW,301,13.0,13.0,70,0.00,BKN,,0.00,635.0,WeatherDisplay:10.37,2013-02-15 16:42:00,
2013-02-15 10:47:00,28.4,18.8,30.19,NW,313,12.0,12.0,67,0.00,BKN,,0.00,601.0,WeatherDisplay:10.37,2013-02-15 16:47:00,
2013-02-15 10:52:00,28.6,21.4,30.19,NW,304,10.4,12.2,74,0.00,BKN,,0.00,227.0,WeatherDisplay:10.37,2013-02-15 16:52:00,
2013-02-15 10:57:00,28.7,18.1,30.19,NW,313,16.1,16.1,64,0.00,BKN,,0.00,621.0,WeatherDisplay:10.37,2013-02-15 16:57:00,
2013-02-15 11:02:00,28.9,17.5,30.19,NNW,340,11.5,11.5,62,0.00,SCT,,0.00,626.0,WeatherDisplay:10.37,2013-02-15 17:02:00,
2013-02-15 11:07:00,28.6,21.4,30.19,NW,304,10.4,12.2,74,0.00,SCT,,0.00,227.0,WeatherDisplay:10.37,2013-02-15 17:07:00,
2013-02-15 11:12:00,28.7,19.1,30.20,NNW,329,15.0,15.0,67,0.00,SCT,,0.00,497.0,WeatherDisplay:10.37,2013-02-15 17:12:00,
2013-02-15 11:17:00,28.6,21.4,30.19,NW,304,10.4,12.2,74,0.00,SCT,,0.00,227.0,WeatherDisplay:10.37,2013-02-15 17:17:00,
2013-02-15 11:22:00,29.1,19.2,30.20,NW,315,12.7,12.7,66,0.00,SCT,,0.00,596.0,WeatherDisplay:10.37,2013-02-15 17:22:00,
2013-02-15 11:27:00,28.6,21.4,30.19,NW,304,10.4,12.2,74,0.00,SCT,,0.00,227.0,WeatherDisplay:10.37,2013-02-15 17:27:00,
2013-02-15 11:32:00,29.3,18.3,30.20,NW,315,12.7,12.7,63,0.00,SCT,,0.00,612.0,WeatherDisplay:10.37,2013-02-15 17:32:00,
2013-02-15 11:37:00,28.6,21.4,30.19,NW,304,10.4,12.2,74,0.00,SCT,,0.00,227.0,WeatherDisplay:10.37,2013-02-15 17:37:00,
2013-02-15 11:43:00,28.6,21.4,30.19,NW,304,10.4,12.2,74,0.00,SCT,,0.00,227.0,WeatherDisplay:10.37,2013-02-15 17:43:00,
2013-02-15 11:48:00,29.7,17.1,30.20,NNW,348,13.8,13.8,59,0.00,SCT,,0.00,636.0,WeatherDisplay:10.37,2013-02-15 17:48:00,
2013-02-15 11:53:00,28.6,21.4,30.19,NW,304,10.4,12.2,74,0.00,SCT,,0.00,227.0,WeatherDisplay:10.37,2013-02-15 17:53:00,
2013-02-15 11:58:00,28.6,21.4,30.19,NW,304,10.4,12.2,74,0.00,SCT,,0.00,227.0,WeatherDisplay:10.37,2013-02-15 17:58:00,
2013-02-15 12:03:00,28.6,21.4,30.19,NW,304,10.4,12.2,74,0.00,CLR,,0.00,227.0,WeatherDisplay:10.37,2013-02-15 18:03:00,
2013-02-15 12:08:00,30.5,18.3,30.19,NNW,332,12.7,12.7,60,0.00,CLR,,0.00,629.0,WeatherDisplay:10.37,2013-02-15 18:08:00,
2013-02-15 12:13:00,30.7,17.7,30.19,NW,316,10.4,10.4,58,0.00,CLR,,0.00,629.0,WeatherDisplay:10.37,2013-02-15 18:13:00,
2013-02-15 12:18:00,30.7,16.4,30.19,North,349,11.5,11.5,55,0.00,CLR,,0.00,629.0,WeatherDisplay:10.37,2013-02-15 18:18:00,
2013-02-15 12:23:00,28.6,21.4,30.19,NW,304,10.4,12.2,74,0.00,CLR,,0.00,227.0,WeatherDisplay:10.37,2013-02-15 18:23:00,
2013-02-15 12:28:00,30.7,16.8,30.19,NW,322,16.1,16.1,56,0.00,CLR,,0.00,628.0,WeatherDisplay:10.37,2013-02-15 18:28:00,
2013-02-15 12:33:00,30.8,17.3,30.19,NW,311,12.7,12.7,57,0.00,CLR,,0.00,624.0,WeatherDisplay:10.37,2013-02-15 18:33:00,
2013-02-15 12:38:00,30.9,17.0,30.19,NW,324,15.0,15.0,56,0.00,CLR,,0.00,621.0,WeatherDisplay:10.37,2013-02-15 18:38:00,
2013-02-15 12:43:00,28.6,21.4,30.19,NW,304,10.4,12.2,74,0.00,CLR,,0.00,227.0,WeatherDisplay:10.37,2013-02-15 18:43:00,
2013-02-15 12:48:00,31.1,17.2,30.19,NW,323,15.0,15.0,56,0.00,CLR,,0.00,615.0,WeatherDisplay:10.37,2013-02-15 18:48:00,
2013-02-15 12:53:00,31.0,17.1,30.19,NW,312,5.8,7.9,56,0.00,CLR,,0.00,617.0,WeatherDisplay:10.37,2013-02-15 18:53:00,
2013-02-15 12:58:00,31.0,17.1,30.19,NW,312,5.8,7.9,56,0.00,CLR,,0.00,617.0,WeatherDisplay:10.37,2013-02-15 18:58:00,
2013-02-15 13:03:00,31.3,16.6,30.19,NW,306,16.1,16.1,54,0.00,CLR,,0.00,601.0,WeatherDisplay:10.37,2013-02-15 19:03:00,
2013-02-15 13:08:00,31.0,17.1,30.19,NW,312,5.8,7.9,56,0.00,CLR,,0.00,617.0,WeatherDisplay:10.37,2013-02-15 19:08:00,
2013-02-15 13:13:00,31.0,17.1,30.19,NW,312,5.8,7.9,56,0.00,CLR,,0.00,617.0,WeatherDisplay:10.37,2013-02-15 19:13:00,
2013-02-15 13:18:00,32.0,18.5,30.18,NNW,342,10.4,10.4,57,0.00,CLR,,0.00,585.0,WeatherDisplay:10.37,2013-02-15 19:18:00,
2013-02-15 13:23:00,32.1,16.9,30.18,NW,308,16.1,16.1,53,0.00,CLR,,0.00,578.0,WeatherDisplay:10.37,2013-02-15 19:23:00,
2013-02-15 13:28:00,31.0,17.1,30.19,NW,312,5.8,7.9,56,0.00,CLR,,0.00,617.0,WeatherDisplay:10.37,2013-02-15 19:28:00,
2013-02-15 13:33:00,32.0,17.6,30.18,NW,323,15.0,15.0,55,0.00,CLR,,0.00,566.0,WeatherDisplay:10.37,2013-02-15 19:33:00,
2013-02-15 13:38:00,31.0,17.1,30.19,NW,312,5.8,7.9,56,0.00,CLR,,0.00,617.0,WeatherDisplay:10.37,2013-02-15 19:38:00,
2013-02-15 13:43:00,31.7,17.4,30.18,NW,309,11.5,11.5,55,0.00,CLR,,0.00,552.0,WeatherDisplay:10.37,2013-02-15 19:43:00,
2013-02-15 13:48:00,31.8,18.3,30.18,NW,316,10.4,10.4,57,0.00,CLR,,0.00,545.0,WeatherDisplay:10.37,2013-02-15 19:48:00,
2013-02-15 13:53:00,31.8,18.3,30.18,NW,316,10.4,10.4,57,0.00,CLR,,0.00,545.0,WeatherDisplay:10.37,2013-02-15 19:53:00,
2013-02-15 13:58:00,31.8,18.3,30.18,NW,316,10.4,10.4,57,0.00,CLR,,0.00,545.0,WeatherDisplay:10.37,2013-02-15 19:58:00,
2013-02-15 14:03:00,32.1,17.3,30.18,NW,309,11.5,11.5,54,0.00,CLR,,0.00,515.0,WeatherDisplay:10.37,2013-02-15 20:03:00,
2013-02-15 14:08:00,31.8,18.3,30.18,NW,316,10.4,10.4,57,0.00,CLR,,0.00,545.0,WeatherDisplay:10.37,2013-02-15 20:08:00,
2013-02-15 14:13:00,32.3,18.8,30.18,NW,319,13.8,13.8,57,0.00,CLR,,0.00,496.0,WeatherDisplay:10.37,2013-02-15 20:13:00,
2013-02-15 14:19:00,32.2,18.2,30.18,WNW,293,11.5,11.5,56,0.00,CLR,,0.00,487.0,WeatherDisplay:10.37,2013-02-15 20:19:00,
2013-02-15 14:24:00,32.4,18.8,30.18,West,281,11.5,11.5,57,0.00,CLR,,0.00,503.0,WeatherDisplay:10.37,2013-02-15 20:24:00,
2013-02-15 14:29:00,32.4,18.8,30.18,West,281,11.5,11.5,57,0.00,CLR,,0.00,503.0,WeatherDisplay:10.37,2013-02-15 20:29:00,
2013-02-15 14:34:00,32.4,18.8,30.18,West,281,11.5,11.5,57,0.00,CLR,,0.00,503.0,WeatherDisplay:10.37,2013-02-15 20:34:00,
2013-02-15 14:39:00,32.4,18.8,30.18,West,281,11.5,11.5,57,0.00,CLR,,0.00,503.0,WeatherDisplay:10.37,2013-02-15 20:39:00,
2013-02-15 14:44:00,31.7,16.5,30.18,NNW,341,11.5,11.5,53,0.00,CLR,,0.00,432.0,WeatherDisplay:10.37,2013-02-15 20:44:00,
2013-02-15 14:49:00,32.4,18.8,30.18,West,281,11.5,11.5,57,0.00,CLR,,0.00,503.0,WeatherDisplay:10.37,2013-02-15 20:49:00,
2013-02-15 14:54:00,32.4,18.8,30.18,West,281,11.5,11.5,57,0.00,CLR,,0.00,503.0,WeatherDisplay:10.37,2013-02-15 20:54:00,
2013-02-15 14:59:00,31.6,16.0,30.18,NW,312,8.1,8.7,52,0.00,CLR,,0.00,413.0,WeatherDisplay:10.37,2013-02-15 20:59:00,
2013-02-15 15:04:00,31.6,17.3,30.18,NW,315,11.5,11.5,55,0.00,CLR,,0.00,392.0,WeatherDisplay:10.37,2013-02-15 21:04:00,
2013-02-15 15:09:00,31.6,16.0,30.18,NW,312,8.1,8.7,52,0.00,CLR,,0.00,413.0,WeatherDisplay:10.37,2013-02-15 21:09:00,
2013-02-15 15:14:00,31.6,16.0,30.18,NW,312,8.1,8.7,52,0.00,CLR,,0.00,413.0,WeatherDisplay:10.37,2013-02-15 21:14:00,
2013-02-15 15:19:00,31.6,16.0,30.18,NW,312,8.1,8.7,52,0.00,CLR,,0.00,413.0,WeatherDisplay:10.37,2013-02-15 21:19:00,
2013-02-15 15:24:00,31.9,17.1,30.19,WNW,289,9.2,9.2,54,0.00,CLR,,0.00,334.0,WeatherDisplay:10.37,2013-02-15 21:24:00,
2013-02-15 15:29:00,32.0,17.2,30.19,WNW,288,6.9,6.9,54,0.00,CLR,,0.00,327.0,WeatherDisplay:10.37,2013-02-15 21:29:00,
2013-02-15 15:34:00,31.5,15.9,30.19,WNW,290,13.8,13.8,52,0.00,CLR,,0.00,304.0,WeatherDisplay:10.37,2013-02-15 21:34:00,
2013-02-15 15:39:00,32.0,17.2,30.19,WNW,288,6.9,6.9,54,0.00,CLR,,0.00,327.0,WeatherDisplay:10.37,2013-02-15 21:39:00,
2013-02-15 15:44:00,32.0,17.2,30.19,WNW,288,6.9,6.9,54,0.00,CLR,,0.00,327.0,WeatherDisplay:10.37,2013-02-15 21:44:00,
2013-02-15 15:49:00,32.0,17.2,30.19,WNW,288,6.9,6.9,54,0.00,CLR,,0.00,327.0,WeatherDisplay:10.37,2013-02-15 21:49:00,
2013-02-15 15:54:00,32.0,17.2,30.19,WNW,288,6.9,6.9,54,0.00,CLR,,0.00,327.0,WeatherDisplay:10.37,2013-02-15 21:54:00,
2013-02-15 15:59:00,31.1,15.5,30.19,West,276,13.8,13.8,52,0.00,CLR,,0.00,214.0,WeatherDisplay:10.37,2013-02-15 21:59:00,
2013-02-15 16:04:00,31.1,15.9,30.19,NW,315,11.5,11.5,53,0.00,CLR,,0.00,195.0,WeatherDisplay:10.37,2013-02-15 22:04:00,
2013-02-15 16:09:00,31.0,15.8,30.19,NW,309,10.4,10.4,53,0.00,CLR,,0.00,176.0,WeatherDisplay:10.37,2013-02-15 22:09:00,
2013-02-15 16:14:00,31.0,16.7,30.19,NW,315,6.9,6.9,55,0.00,CLR,,0.00,63.0,WeatherDisplay:10.37,2013-02-15 22:14:00,
2013-02-15 16:19:00,31.1,15.9,30.19,West,261,6.9,6.9,53,0.00,CLR,,0.00,185.0,WeatherDisplay:10.37,2013-02-15 22:19:00,
2013-02-15 16:24:00,30.6,16.3,30.19,NW,311,10.4,10.4,55,0.00,CLR,,0.00,127.0,WeatherDisplay:10.37,2013-02-15 22:24:00,
2013-02-15 16:29:00,30.7,16.4,30.19,WNW,298,10.4,10.4,55,0.00,CLR,,0.00,91.0,WeatherDisplay:10.37,2013-02-15 22:29:00,
2013-02-15 16:34:00,30.7,16.8,30.19,WNW,286,5.8,5.8,56,0.00,CLR,,0.00,121.0,WeatherDisplay:10.37,2013-02-15 22:34:00,
2013-02-15 16:39:00,30.7,16.8,30.19,WNW,286,5.8,5.8,56,0.00,CLR,,0.00,121.0,WeatherDisplay:10.37,2013-02-15 22:39:00,
2013-02-15 16:44:00,30.7,16.8,30.19,WNW,286,5.8,5.8,56,0.00,CLR,,0.00,121.0,WeatherDisplay:10.37,2013-02-15 22:44:00,
2013-02-15 16:49:00,30.2,16.4,30.19,WNW,303,9.2,9.2,56,0.00,SCT,,0.00,44.0,WeatherDisplay:10.37,2013-02-15 22:49:00,
2013-02-15 16:54:00,30.1,16.3,30.19,NW,326,11.5,11.5,56,0.00,SCT,,0.00,33.0,WeatherDisplay:10.37,2013-02-15 22:54:00,
2013-02-15 16:59:00,29.8,15.6,30.19,West,268,11.5,11.5,55,0.00,SCT,,0.00,25.0,WeatherDisplay:10.37,2013-02-15 22:59:00,
2013-02-15 17:04:00,30.7,16.8,30.19,WNW,286,5.8,5.8,56,0.00,SCT,,0.00,121.0,WeatherDisplay:10.37,2013-02-15 23:04:00,
2013-02-15 17:09:00,29.4,17.2,30.19,WNW,302,7.0,7.0,60,0.00,SCT,,0.00,14.0,WeatherDisplay:10.37,2013-02-15 23:09:00,
2013-02-15 17:14:00,29.4,17.2,30.19,NNW,327,6.9,6.9,60,0.00,SCT,,0.00,14.0,WeatherDisplay:10.37,2013-02-15 23:14:00,
2013-02-15 17:19:00,29.0,16.1,30.20,NW,309,9.2,9.2,58,0.00,BKN,,0.00,9.0,WeatherDisplay:10.37,2013-02-15 23:19:00,
2013-02-15 17:24:00,29.4,17.2,30.19,NNW,327,6.9,6.9,60,0.00,BKN,,0.00,14.0,WeatherDisplay:10.37,2013-02-15 23:24:00,
2013-02-15 17:29:00,29.4,17.2,30.19,NNW,327,6.9,6.9,60,0.00,BKN,,0.00,14.0,WeatherDisplay:10.37,2013-02-15 23:29:00,
2013-02-15 17:34:00,28.8,16.6,30.20,WNW,296,9.0,9.0,60,0.00,BKN,,0.00,0.0,WeatherDisplay:10.37,2013-02-15 23:34:00,
2013-02-15 17:39:00,28.8,17.0,30.20,West,269,3.5,5.4,61,0.00,BKN,,0.00,0.0,WeatherDisplay:10.37,2013-02-15 23:39:00,
2013-02-15 17:44:00,28.8,15.9,30.20,WNW,282,11.5,11.5,58,0.00,BKN,,0.00,0.0,WeatherDisplay:10.37,2013-02-15 23:44:00,
2013-02-15 17:49:00,28.8,17.0,30.20,West,269,3.5,5.4,61,0.00,BKN,,0.00,0.0,WeatherDisplay:10.37,2013-02-15 23:49:00,
2013-02-15 17:54:00,28.8,15.9,30.20,NW,314,8.1,8.1,58,0.00,BKN,,0.00,0.0,WeatherDisplay:10.37,2013-02-15 23:54:00,
2013-02-15 17:59:00,28.9,15.2,30.20,WSW,254,11.5,11.5,56,0.00,BKN,,0.00,0.0,WeatherDisplay:10.37,2013-02-15 23:59:00,
2013-02-15 18:04:00,28.9,15.2,30.20,West,260,11.5,11.5,56,0.00,BKN,,0.00,0.0,WeatherDisplay:10.37,2013-02-16 00:04:00,
2013-02-15 18:09:00,28.8,17.0,30.20,West,269,3.5,5.4,61,0.00,BKN,,0.00,0.0,WeatherDisplay:10.37,2013-02-16 00:09:00,
2013-02-15 18:14:00,28.8,17.0,30.20,West,269,3.5,5.4,61,0.00,BKN,,0.00,0.0,WeatherDisplay:10.37,2013-02-16 00:14:00,
2013-02-15 18:19:00,28.8,17.0,30.20,West,269,3.5,5.4,61,0.00,BKN,,0.00,0.0,WeatherDisplay:10.37,2013-02-16 00:19:00,
2013-02-15 18:24:00,28.8,17.0,30.20,West,269,3.5,5.4,61,0.00,BKN,,0.00,0.0,WeatherDisplay:10.37,2013-02-16 00:24:00,
2013-02-15 18:29:00,28.5,15.2,30.20,WNW,294,9.2,9.2,57,0.00,BKN,,0.00,0.0,WeatherDisplay:10.37,2013-02-16 00:29:00,
2013-02-15 18:34:00,28.8,17.0,30.20,West,269,3.5,5.4,61,0.00,BKN,,0.00,0.0,WeatherDisplay:10.37,2013-02-16 00:34:00,
2013-02-15 18:39:00,28.8,17.0,30.20,West,269,3.5,5.4,61,0.00,BKN,,0.00,0.0,WeatherDisplay:10.37,2013-02-16 00:39:00,
2013-02-15 18:44:00,28.8,17.0,30.20,West,269,3.5,5.4,61,0.00,BKN,,0.00,0.0,WeatherDisplay:10.37,2013-02-16 00:44:00,
2013-02-15 18:49:00,28.8,17.0,30.20,West,269,3.5,5.4,61,0.00,BKN,,0.00,0.0,WeatherDisplay:10.37,2013-02-16 00:49:00,
2013-02-15 18:54:00,28.2,15.3,30.20,NW,320,12.7,12.7,58,0.00,BKN,,0.00,0.0,WeatherDisplay:10.37,2013-02-16 00:54:00,
2013-02-15 18:59:00,28.2,15.7,30.20,West,276,7.0,7.0,59,0.00,BKN,,0.00,0.0,WeatherDisplay:10.37,2013-02-16 00:59:00,
2013-02-15 19:04:00,28.2,16.1,30.20,WNW,286,6.0,6.0,60,0.00,OVC,,0.00,0.0,WeatherDisplay:10.37,2013-02-16 01:04:00,
2013-02-15 19:09:00,28.2,15.7,30.20,West,277,11.5,11.5,59,0.00,OVC,,0.00,0.0,WeatherDisplay:10.37,2013-02-16 01:09:00,
2013-02-15 19:14:00,28.1,15.6,30.20,NW,308,11.5,11.5,59,0.00,OVC,,0.00,0.0,WeatherDisplay:10.37,2013-02-16 01:14:00,
2013-02-15 19:19:00,28.1,15.6,30.20,WNW,303,11.5,11.5,59,0.00,OVC,,0.00,0.0,WeatherDisplay:10.37,2013-02-16 01:19:00,
2013-02-15 19:24:00,28.0,15.9,30.20,NW,304,9.2,9.2,60,0.00,OVC,,0.00,0.0,WeatherDisplay:10.37,2013-02-16 01:24:00,
2013-02-15 19:29:00,28.8,17.0,30.20,West,269,3.5,5.4,61,0.00,OVC,,0.00,0.0,WeatherDisplay:10.37,2013-02-16 01:29:00,
2013-02-15 19:34:00,27.9,16.2,30.20,NW,307,5.0,5.0,61,0.00,OVC,,0.00,0.0,WeatherDisplay:10.37,2013-02-16 01:34:00,
2013-02-15 19:40:00,28.8,17.0,30.20,West,269,3.5,5.4,61,0.00,OVC,,0.00,0.0,WeatherDisplay:10.37,2013-02-16 01:40:00,
2013-02-15 19:45:00,28.8,17.0,30.20,West,269,3.5,5.4,61,0.00,OVC,,0.00,0.0,WeatherDisplay:10.37,2013-02-16 01:45:00,
2013-02-15 19:50:00,28.8,17.0,30.20,West,269,3.5,5.4,61,0.00,OVC,,0.00,0.0,WeatherDisplay:10.37,2013-02-16 01:50:00,
2013-02-15 19:55:00,28.8,17.0,30.20,West,269,3.5,5.4,61,0.00,OVC,,0.00,0.0,WeatherDisplay:10.37,2013-02-16 01:55:00,
2013-02-15 20:00:00,27.8,14.5,30.20,West,278,4.6,7.9,57,0.00,OVC,,0.00,0.0,WeatherDisplay:10.37,2013-02-16 02:00:00,
2013-02-15 20:05:00,27.5,14.2,30.20,WNW,285,12.0,12.0,57,0.00,OVC,,0.00,0.0,WeatherDisplay:10.37,2013-02-16 02:05:00,
2013-02-15 20:10:00,27.8,14.5,30.20,West,278,4.6,7.9,57,0.00,OVC,,0.00,0.0,WeatherDisplay:10.37,2013-02-16 02:10:00,
2013-02-15 20:15:00,27.8,14.5,30.20,West,278,4.6,7.9,57,0.00,OVC,,0.00,0.0,WeatherDisplay:10.37,2013-02-16 02:15:00,
2013-02-15 20:20:00,27.8,14.5,30.20,West,278,4.6,7.9,57,0.00,OVC,,0.00,0.0,WeatherDisplay:10.37,2013-02-16 02:20:00,
2013-02-15 20:25:00,27.8,14.5,30.20,West,278,4.6,7.9,57,0.00,OVC,,0.00,0.0,WeatherDisplay:10.37,2013-02-16 02:25:00,
2013-02-15 20:30:00,27.8,14.5,30.20,West,278,4.6,7.9,57,0.00,OVC,,0.00,0.0,WeatherDisplay:10.37,2013-02-16 02:30:00,
2013-02-15 20:35:00,27.8,14.5,30.20,West,278,4.6,7.9,57,0.00,BKN,,0.00,0.0,WeatherDisplay:10.37,2013-02-16 02:35:00,
2013-02-15 20:40:00,26.0,15.1,30.20,WNW,290,12.7,12.7,63,0.00,BKN,,0.00,0.0,WeatherDisplay:10.37,2013-02-16 02:40:00,
2013-02-15 20:45:00,27.8,14.5,30.20,West,278,4.6,7.9,57,0.00,BKN,,0.00,0.0,WeatherDisplay:10.37,2013-02-16 02:45:00,
2013-02-15 20:50:00,27.8,14.5,30.20,West,278,4.6,7.9,57,0.00,SCT,,0.00,0.0,WeatherDisplay:10.37,2013-02-16 02:50:00,
2013-02-15 20:55:00,27.8,14.5,30.20,West,278,4.6,7.9,57,0.00,SCT,,0.00,0.0,WeatherDisplay:10.37,2013-02-16 02:55:00,
2013-02-15 21:00:00,27.8,14.5,30.20,West,278,4.6,7.9,57,0.00,SCT,,0.00,0.0,WeatherDisplay:10.37,2013-02-16 03:00:00,
2013-02-15 21:05:00,25.3,15.5,30.20,NNW,330,6.9,6.9,66,0.00,SCT,,0.00,0.0,WeatherDisplay:10.37,2013-02-16 03:05:00,
2013-02-15 21:10:00,27.8,14.5,30.20,West,278,4.6,7.9,57,0.00,SCT,,0.00,0.0,WeatherDisplay:10.37,2013-02-16 03:10:00,
2013-02-15 21:15:00,25.2,15.8,30.20,West,274,10.4,10.4,67,0.00,SCT,,0.00,0.0,WeatherDisplay:10.37,2013-02-16 03:15:00,
2013-02-15 21:20:00,25.1,16.0,30.20,WSW,248,10.4,10.4,68,0.00,CLR,,0.00,0.0,WeatherDisplay:10.37,2013-02-16 03:20:00,
2013-02-15 21:25:00,25.0,15.9,30.20,WSW,248,9.2,9.2,68,0.00,CLR,,0.00,0.0,WeatherDisplay:10.37,2013-02-16 03:25:00,
2013-02-15 21:30:00,24.8,16.1,30.20,West,278,5.8,5.8,69,0.00,CLR,,0.00,0.0,WeatherDisplay:10.37,2013-02-16 03:30:00,
2013-02-15 21:35:00,24.7,16.3,30.20,WSW,252,9.2,9.2,70,0.00,CLR,,0.00,0.0,WeatherDisplay:10.37,2013-02-16 03:35:00,
2013-02-15 21:40:00,24.6,16.2,30.20,West,269,8.1,8.1,70,0.00,CLR,,0.00,0.0,WeatherDisplay:10.37,2013-02-16 03:40:00,
2013-02-15 21:45:00,24.5,16.4,30.20,West,280,9.2,9.2,71,0.00,CLR,,0.00,0.0,WeatherDisplay:10.37,2013-02-16 03:45:00,
2013-02-15 21:50:00,24.6,16.2,30.20,WSW,238,4.6,4.6,70,0.00,CLR,,0.00,0.0,WeatherDisplay:10.37,2013-02-16 03:50:00,
2013-02-15 21:55:00,24.6,16.2,30.20,WSW,238,4.6,4.6,70,0.00,CLR,,0.00,0.0,WeatherDisplay:10.37,2013-02-16 03:55:00,
2013-02-15 22:00:00,24.6,16.2,30.20,WSW,238,4.6,4.6,70,0.00,CLR,,0.00,0.0,WeatherDisplay:10.37,2013-02-16 04:00:00,
2013-02-15 22:05:00,24.6,16.2,30.20,WSW,238,4.6,4.6,70,0.00,CLR,,0.00,0.0,WeatherDisplay:10.37,2013-02-16 04:05:00,
2013-02-15 22:10:00,24.6,16.2,30.20,WSW,238,4.6,4.6,70,0.00,CLR,,0.00,0.0,WeatherDisplay:10.37,2013-02-16 04:10:00,
2013-02-15 22:15:00,24.6,16.2,30.20,WSW,238,4.6,4.6,70,0.00,CLR,,0.00,0.0,WeatherDisplay:10.37,2013-02-16 04:15:00,
2013-02-15 22:20:00,24.6,16.2,30.20,WSW,238,4.6,4.6,70,0.00,CLR,,0.00,0.0,WeatherDisplay:10.37,2013-02-16 04:20:00,
2013-02-15 22:25:00,24.6,16.2,30.20,WSW,238,4.6,4.6,70,0.00,CLR,,0.00,0.0,WeatherDisplay:10.37,2013-02-16 04:25:00,
2013-02-15 22:30:00,24.6,16.2,30.20,WSW,238,4.6,4.6,70,0.00,CLR,,0.00,0.0,WeatherDisplay:10.37,2013-02-16 04:30:00,
2013-02-15 22:35:00,24.1,17.3,30.19,West,276,14.0,14.0,75,0.00,CLR,,0.00,0.0,WeatherDisplay:10.37,2013-02-16 04:35:00,
2013-02-15 22:40:00,24.0,17.2,30.19,NW,319,11.5,11.5,75,0.00,CLR,,0.00,0.0,WeatherDisplay:10.37,2013-02-16 04:40:00,
2013-02-15 22:45:00,24.0,17.5,30.19,NW,316,12.7,12.7,76,0.00,CLR,,0.00,0.0,WeatherDisplay:10.37,2013-02-16 04:45:00,
2013-02-15 22:50:00,23.8,17.3,30.19,NNW,333,12.0,12.0,76,0.00,CLR,,0.00,0.0,WeatherDisplay:10.37,2013-02-16 04:50:00,
2013-02-15 22:56:00,23.8,16.7,30.19,NW,311,16.1,16.1,74,0.00,CLR,,0.00,0.0,WeatherDisplay:10.37,2013-02-16 04:56:00,
2013-02-15 23:00:00,23.8,16.7,30.19,NW,313,11.0,11.0,74,0.00,CLR,,0.00,0.0,WeatherDisplay:10.37,2013-02-16 05:00:00,
2013-02-15 23:05:00,24.6,16.2,30.20,WSW,238,4.6,4.6,70,0.00,SCT,,0.00,0.0,WeatherDisplay:10.37,2013-02-16 05:05:00,
2013-02-15 23:10:00,23.5,16.4,30.19,NW,321,15.0,15.0,74,0.00,SCT,,0.00,0.0,WeatherDisplay:10.37,2013-02-16 05:10:00,
2013-02-15 23:15:00,24.6,16.2,30.20,WSW,238,4.6,4.6,70,0.00,SCT,,0.00,0.0,WeatherDisplay:10.37,2013-02-16 05:15:00,
2013-02-15 23:20:00,24.6,16.2,30.20,WSW,238,4.6,4.6,70,0.00,SCT,,0.00,0.0,WeatherDisplay:10.37,2013-02-16 05:20:00,
2013-02-15 23:23:00,24.6,16.2,30.20,WSW,238,4.6,4.6,70,0.00,SCT,,0.00,0.0,WeatherDisplay:10.37,2013-02-16 05:23:00,
2013-02-15 23:28:00,22.6,14.3,30.19,NW,317,13.8,13.8,70,0.00,SCT,,0.00,0.0,WeatherDisplay:10.37,2013-02-16 05:28:00,
2013-02-15 23:33:00,24.6,16.2,30.20,WSW,238,4.6,4.6,70,0.00,BKN,,0.00,0.0,WeatherDisplay:10.37,2013-02-16 05:33:00,
2013-02-15 23:38:00,22.7,13.7,30.19,NW,321,11.5,11.5,68,0.00,BKN,,0.00,0.0,WeatherDisplay:10.37,2013-02-16 05:38:00,
2013-02-15 23:43:00,22.8,13.8,30.19,NW,305,15.0,15.0,68,0.00,BKN,,0.00,0.0,WeatherDisplay:10.37,2013-02-16 05:43:00,
2013-02-15 23:48:00,22.6,12.9,30.19,NNW,327,18.4,18.4,66,0.00,OVC,,0.00,0.0,WeatherDisplay:10.37,2013-02-16 05:48:00,
2013-02-15 23:53:00,22.6,12.9,30.19,NNW,327,12.7,13.5,66,0.00,OVC,,0.00,0.0,WeatherDisplay:10.37,2013-02-16 05:53:00,
2013-02-15 23:58:00,22.6,12.9,30.19,NNW,327,12.7,13.5,66,0.00,OVC,,0.00,0.0,WeatherDisplay:10.37,2013-02-16 05:58:00,